createdAt,value
2022-12-18T00:01:29.580Z,-2.69
2022-12-18T00:03:57.464Z,-2.71
2022-12-18T00:06:27.492Z,-2.73
2022-12-18T00:08:56.940Z,-2.76
2022-12-18T00:11:28.309Z,-2.83
2022-12-18T00:13:57.626Z,-2.89
2022-12-18T00:16:27.548Z,-2.97
2022-12-18T00:18:57.609Z,-2.97
2022-12-18T00:21:24.751Z,-2.96
2022-12-18T00:23:52.464Z,-3.01
2022-12-18T00:26:31.146Z,-3.02
2022-12-18T00:29:12.574Z,-3.04
2022-12-18T00:31:39.785Z,-3.09
2022-12-18T00:34:06.901Z,-3.11
2022-12-18T00:36:36.257Z,-3.11
2022-12-18T00:39:06.242Z,-3.10
2022-12-18T00:41:52.417Z,-3.07
2022-12-18T00:44:20.766Z,-3.03
2022-12-18T00:46:49.632Z,-3.05
2022-12-18T00:49:19.753Z,-3.03
2022-12-18T00:51:47.562Z,-3.03
2022-12-18T00:54:14.696Z,-3.10
2022-12-18T00:56:49.853Z,-3.25
2022-12-18T00:59:19.131Z,-3.37
2022-12-18T01:01:47.677Z,-3.34
2022-12-18T01:04:16.169Z,-3.29
2022-12-18T01:06:43.224Z,-3.29
2022-12-18T01:09:10.135Z,-3.35
2022-12-18T01:11:37.381Z,-3.43
2022-12-18T01:14:04.472Z,-3.54
2022-12-18T01:16:31.696Z,-3.48
2022-12-18T01:18:58.604Z,-3.46
2022-12-18T01:21:25.837Z,-3.53
2022-12-18T01:23:55.927Z,-3.56
2022-12-18T01:26:23.973Z,-3.57
2022-12-18T01:28:50.866Z,-3.62
2022-12-18T01:31:30.751Z,-3.73
2022-12-18T01:33:58.608Z,-3.79
2022-12-18T01:36:35.371Z,-3.84
2022-12-18T01:39:11.358Z,-3.93
2022-12-18T01:41:58.618Z,-3.95
2022-12-18T01:45:16.636Z,-3.93
2022-12-18T01:48:09.896Z,-3.85
2022-12-18T01:50:44.120Z,-3.83
2022-12-18T01:53:16.878Z,-3.82
2022-12-18T01:55:54.015Z,-3.92
2022-12-18T01:58:34.661Z,-3.83
2022-12-18T02:01:01.567Z,-3.79
2022-12-18T02:03:28.934Z,-3.76
2022-12-18T02:06:08.117Z,-3.83
2022-12-18T02:08:53.123Z,-3.91
2022-12-18T02:11:42.431Z,-3.92
2022-12-18T02:14:24.693Z,-3.98
2022-12-18T02:17:16.211Z,-3.99
2022-12-18T02:20:11.189Z,-3.99
2022-12-18T02:23:24.327Z,-4.04
2022-12-18T02:26:07.043Z,-4.01
2022-12-18T02:28:46.710Z,-4.00
2022-12-18T02:31:24.913Z,-3.89
2022-12-18T02:33:56.317Z,-3.81
2022-12-18T02:36:26.634Z,-3.85
2022-12-18T02:38:55.918Z,-3.84
2022-12-18T02:41:26.546Z,-3.87
2022-12-18T02:44:01.024Z,-3.86
2022-12-18T02:46:33.481Z,-3.83
2022-12-18T02:49:19.714Z,-3.74
2022-12-18T02:52:32.659Z,-3.68
2022-12-18T02:55:34.314Z,-3.62
2022-12-18T02:58:17.143Z,-3.64
2022-12-18T03:01:04.669Z,-3.57
2022-12-18T03:03:44.114Z,-3.52
2022-12-18T03:06:24.572Z,-3.48
2022-12-18T03:09:02.101Z,-3.37
2022-12-18T03:11:53.780Z,-3.35
2022-12-18T03:14:26.495Z,-3.34
2022-12-18T03:17:00.691Z,-3.40
2022-12-18T03:19:32.467Z,-3.39
2022-12-18T03:22:04.362Z,-3.46
2022-12-18T03:24:34.585Z,-3.61
2022-12-18T03:27:12.224Z,-3.60
2022-12-18T03:29:47.706Z,-3.53
2022-12-18T03:32:29.807Z,-3.51
2022-12-18T03:35:06.558Z,-3.53
2022-12-18T03:37:35.606Z,-3.54
2022-12-18T03:40:04.739Z,-3.40
2022-12-18T03:42:53.928Z,-3.46
2022-12-18T03:45:54.261Z,-3.52
2022-12-18T03:48:38.759Z,-3.52
2022-12-18T03:51:19.261Z,-3.59
2022-12-18T03:54:00.089Z,-3.63
2022-12-18T03:56:34.626Z,-3.48
2022-12-18T03:59:05.678Z,-3.52
2022-12-18T04:01:43.916Z,-3.55
2022-12-18T04:04:13.959Z,-3.61
2022-12-18T04:06:44.563Z,-3.61
2022-12-18T04:09:12.499Z,-3.61
2022-12-18T04:11:44.772Z,-3.63
2022-12-18T04:14:17.377Z,-3.68
2022-12-18T04:16:45.693Z,-3.61
2022-12-18T04:19:12.666Z,-3.56
2022-12-18T04:21:40.166Z,-3.56
2022-12-18T04:24:07.582Z,-3.56
2022-12-18T04:26:34.966Z,-3.42
2022-12-18T04:29:01.921Z,-3.38
2022-12-18T04:31:29.179Z,-3.42
2022-12-18T04:33:56.063Z,-3.41
2022-12-18T04:36:23.223Z,-3.43
2022-12-18T04:38:50.128Z,-3.39
2022-12-18T04:41:17.281Z,-3.41
2022-12-18T04:43:44.221Z,-3.49
2022-12-18T04:46:11.462Z,-3.50
2022-12-18T04:48:38.936Z,-3.52
2022-12-18T04:51:07.635Z,-3.57
2022-12-18T04:53:34.732Z,-3.58
2022-12-18T04:56:15.154Z,-3.55
2022-12-18T04:58:45.352Z,-3.50
2022-12-18T05:01:15.496Z,-3.47
2022-12-18T05:03:44.323Z,-3.49
2022-12-18T05:06:11.986Z,-3.38
2022-12-18T05:08:38.906Z,-3.41
2022-12-18T05:11:10.918Z,-3.44
2022-12-18T05:13:39.243Z,-3.51
2022-12-18T05:16:07.586Z,-3.43
2022-12-18T05:18:35.213Z,-3.41
2022-12-18T05:21:03.081Z,-3.35
2022-12-18T05:23:30.347Z,-3.36
2022-12-18T05:26:01.325Z,-3.35
2022-12-18T05:28:31.768Z,-3.33
2022-12-18T05:31:03.321Z,-3.31
2022-12-18T05:33:34.453Z,-3.36
2022-12-18T05:36:05.233Z,-3.34
2022-12-18T05:38:34.714Z,-3.29
2022-12-18T05:41:01.786Z,-3.28
2022-12-18T05:43:29.647Z,-3.29
2022-12-18T05:45:57.846Z,-3.34
2022-12-18T05:48:24.755Z,-3.41
2022-12-18T05:50:52.214Z,-3.54
2022-12-18T05:53:21.721Z,-3.47
2022-12-18T05:55:49.184Z,-3.38
2022-12-18T05:58:16.856Z,-3.35
2022-12-18T06:00:46.828Z,-3.29
2022-12-18T06:03:14.647Z,-3.31
2022-12-18T06:05:46.281Z,-3.28
2022-12-18T06:08:14.270Z,-3.35
2022-12-18T06:10:42.745Z,-3.37
2022-12-18T06:13:10.068Z,-3.37
2022-12-18T06:15:40.037Z,-3.58
2022-12-18T06:18:07.137Z,-3.52
2022-12-18T06:20:34.734Z,-3.49
2022-12-18T06:23:02.057Z,-3.42
2022-12-18T06:25:29.351Z,-3.47
2022-12-18T06:27:56.590Z,-3.48
2022-12-18T06:30:24.023Z,-3.50
2022-12-18T06:32:56.430Z,-3.48
2022-12-18T06:35:24.754Z,-3.42
2022-12-18T06:37:52.912Z,-3.59
2022-12-18T06:40:20.082Z,-3.72
2022-12-18T06:42:47.134Z,-3.61
2022-12-18T06:45:16.034Z,-3.54
2022-12-18T06:47:42.879Z,-3.50
2022-12-18T06:50:10.656Z,-3.49
2022-12-18T06:52:37.941Z,-3.53
2022-12-18T06:55:05.876Z,-3.57
2022-12-18T06:57:32.657Z,-3.60
2022-12-18T06:59:59.769Z,-3.64
2022-12-18T07:02:26.654Z,-3.59
2022-12-18T07:04:53.879Z,-3.52
2022-12-18T07:07:20.737Z,-3.47
2022-12-18T07:09:47.854Z,-3.49
2022-12-18T07:12:14.642Z,-3.39
2022-12-18T07:14:41.787Z,-3.36
2022-12-18T07:17:08.985Z,-3.38
2022-12-18T07:19:36.161Z,-3.43
2022-12-18T07:22:03.099Z,-3.42
2022-12-18T07:24:31.373Z,-3.40
2022-12-18T07:26:58.214Z,-3.35
2022-12-18T07:29:26.820Z,-3.33
2022-12-18T07:31:53.823Z,-3.32
2022-12-18T07:34:21.084Z,-3.31
2022-12-18T07:36:47.970Z,-3.37
2022-12-18T07:39:15.405Z,-3.38
2022-12-18T07:41:47.515Z,-3.36
2022-12-18T07:44:14.804Z,-3.36
2022-12-18T07:46:41.726Z,-3.28
2022-12-18T07:49:08.906Z,-3.24
2022-12-18T07:51:35.778Z,-3.28
2022-12-18T07:54:02.838Z,-3.30
2022-12-18T07:56:31.113Z,-3.33
2022-12-18T07:59:00.544Z,-3.51
2022-12-18T08:01:28.457Z,-3.52
2022-12-18T08:03:56.726Z,-3.41
2022-12-18T08:06:24.320Z,-3.48
2022-12-18T08:08:54.566Z,-3.52
2022-12-18T08:11:22.377Z,-3.46
2022-12-18T08:13:49.739Z,-3.45
2022-12-18T08:16:17.273Z,-3.45
2022-12-18T08:18:44.650Z,-3.37
2022-12-18T08:21:22.014Z,-3.34
2022-12-18T08:23:51.760Z,-3.57
2022-12-18T08:26:19.928Z,-3.49
2022-12-18T08:28:48.508Z,-3.76
2022-12-18T08:31:16.904Z,-3.66
2022-12-18T08:33:44.484Z,-3.51
2022-12-18T08:36:12.067Z,-3.62
2022-12-18T08:38:39.966Z,-3.59
2022-12-18T08:41:10.307Z,-3.50
2022-12-18T08:43:56.403Z,-3.53
2022-12-18T08:46:28.128Z,-3.50
2022-12-18T08:48:59.099Z,-3.41
2022-12-18T08:51:26.126Z,-3.35
2022-12-18T08:53:53.232Z,-3.32
2022-12-18T08:56:20.189Z,-3.41
2022-12-18T08:58:47.717Z,-3.46
2022-12-18T09:01:14.978Z,-3.43
2022-12-18T09:03:44.154Z,-3.40
2022-12-18T09:06:16.728Z,-3.47
2022-12-18T09:08:46.024Z,-3.48
2022-12-18T09:11:23.360Z,-3.62
2022-12-18T09:13:51.705Z,-3.60
2022-12-18T09:16:20.648Z,-3.61
2022-12-18T09:18:48.773Z,-3.68
2022-12-18T09:21:20.354Z,-3.61
2022-12-18T09:23:52.136Z,-3.63
2022-12-18T09:26:19.185Z,-3.69
2022-12-18T09:28:46.656Z,-3.61
2022-12-18T09:31:14.532Z,-3.61
2022-12-18T09:33:42.202Z,-3.80
2022-12-18T09:36:14.356Z,-3.74
2022-12-18T09:38:42.667Z,-3.66
2022-12-18T09:41:41.008Z,-3.71
2022-12-18T09:44:44.974Z,-3.74
2022-12-18T09:47:31.680Z,-3.61
2022-12-18T09:50:11.587Z,-3.48
2022-12-18T09:52:49.177Z,-3.62
2022-12-18T09:55:38.117Z,-3.56
2022-12-18T09:58:21.675Z,-3.43
2022-12-18T10:00:48.902Z,-3.46
2022-12-18T10:03:17.262Z,-3.53
2022-12-18T10:06:03.311Z,-3.49
2022-12-18T10:08:39.768Z,-3.28
2022-12-18T10:11:49.948Z,-3.37
2022-12-18T10:14:37.682Z,-3.54
2022-12-18T10:17:43.039Z,-3.59
2022-12-18T10:20:40.481Z,-3.52
2022-12-18T10:23:20.397Z,-3.57
2022-12-18T10:26:08.273Z,-3.52
2022-12-18T10:28:41.970Z,-3.51
2022-12-18T10:31:19.203Z,-3.40
2022-12-18T10:33:46.824Z,-3.08
2022-12-18T10:36:14.451Z,-3.10
2022-12-18T10:38:42.875Z,-3.21
2022-12-18T10:41:19.687Z,-3.15
2022-12-18T10:43:49.314Z,-3.30
2022-12-18T10:46:21.668Z,-3.33
2022-12-18T10:48:49.102Z,-3.33
2022-12-18T10:51:36.330Z,-3.45
2022-12-18T10:54:13.612Z,-3.58
2022-12-18T10:56:41.248Z,-3.54
2022-12-18T10:59:13.739Z,-3.59
2022-12-18T11:01:53.247Z,-3.53
2022-12-18T11:04:25.980Z,-3.60
2022-12-18T11:07:00.861Z,-3.79
2022-12-18T11:09:40.775Z,-3.73
2022-12-18T11:12:21.170Z,-3.79
2022-12-18T11:14:57.562Z,-3.68
2022-12-18T11:17:36.967Z,-3.59
2022-12-18T11:20:37.670Z,-3.64
2022-12-18T11:23:14.673Z,-3.64
2022-12-18T11:25:57.327Z,-3.63
2022-12-18T11:28:35.284Z,-3.43
2022-12-18T11:31:25.404Z,-3.30
2022-12-18T11:37:02.030Z,-3.50
2022-12-18T11:40:20.768Z,-3.60
2022-12-18T11:42:59.130Z,-3.53
2022-12-18T11:45:41.905Z,-3.67
2022-12-18T11:48:25.707Z,-3.70
2022-12-18T11:50:57.180Z,-3.52
2022-12-18T11:53:27.496Z,-3.36
2022-12-18T11:56:34.815Z,-3.59
2022-12-18T11:59:26.852Z,-3.51
2022-12-18T12:02:15.772Z,-3.38
2022-12-18T12:05:00.252Z,-3.37
2022-12-18T12:08:06.145Z,-3.29
2022-12-18T12:11:06.269Z,-3.44
2022-12-18T12:14:07.813Z,-3.53
2022-12-18T12:17:09.227Z,-3.40
2022-12-18T12:20:10.289Z,-3.37
2022-12-18T12:23:00.269Z,-3.32
2022-12-18T12:25:47.590Z,-3.38
2022-12-18T12:28:40.900Z,-3.30
2022-12-18T12:31:40.674Z,-3.34
2022-12-18T12:34:26.354Z,-3.21
2022-12-18T12:37:39.269Z,-3.15
2022-12-18T12:40:26.875Z,-3.14
2022-12-18T12:43:20.699Z,-3.23
2022-12-18T12:46:04.700Z,-3.16
2022-12-18T12:48:43.998Z,-3.14
2022-12-18T12:51:17.006Z,-3.12
2022-12-18T12:53:44.563Z,-3.14
2022-12-18T12:56:19.073Z,-3.23
2022-12-18T12:59:00.570Z,-3.24
2022-12-18T13:01:43.049Z,-3.38
2022-12-18T13:04:46.145Z,-3.30
2022-12-18T13:07:33.487Z,-3.50
2022-12-18T13:10:39.110Z,-3.33
2022-12-18T13:13:23.660Z,-3.23
2022-12-18T13:16:07.974Z,-3.19
2022-12-18T13:18:36.519Z,-3.32
2022-12-18T13:21:24.367Z,-3.33
2022-12-18T13:23:52.429Z,-3.38
2022-12-18T13:26:23.235Z,-3.24
2022-12-18T13:28:57.028Z,-3.22
2022-12-18T13:31:42.389Z,-3.28
2022-12-18T13:34:28.528Z,-3.21
2022-12-18T13:37:32.841Z,-3.33
2022-12-18T13:40:00.143Z,-3.47
2022-12-18T13:42:48.901Z,-3.42
2022-12-18T13:45:59.765Z,-3.35
2022-12-18T13:48:30.263Z,-3.45
2022-12-18T13:51:08.987Z,-3.53
2022-12-18T13:53:52.335Z,-3.51
2022-12-18T13:56:26.084Z,-3.49
2022-12-18T13:59:18.672Z,-3.41
2022-12-18T14:01:55.660Z,-3.50
2022-12-18T14:04:36.250Z,-3.46
2022-12-18T14:07:07.471Z,-3.41
2022-12-18T14:09:44.752Z,-3.45
2022-12-18T14:12:44.006Z,-3.59
2022-12-18T14:15:27.431Z,-3.60
2022-12-18T14:18:39.568Z,-3.61
2022-12-18T14:21:16.328Z,-3.48
2022-12-18T14:23:44.073Z,-3.51
2022-12-18T14:26:29.962Z,-3.51
2022-12-18T14:29:02.030Z,-3.46
2022-12-18T14:31:32.625Z,-3.40
2022-12-18T14:33:59.737Z,-3.34
2022-12-18T14:36:29.600Z,-3.36
2022-12-18T14:38:59.943Z,-3.47
2022-12-18T14:41:29.829Z,-3.37
2022-12-18T14:44:11.992Z,-3.43
2022-12-18T14:46:43.815Z,-3.47
2022-12-18T14:49:35.298Z,-3.43
2022-12-18T14:52:07.310Z,-3.65
2022-12-18T14:54:38.525Z,-3.68
2022-12-18T14:57:18.035Z,-3.80
2022-12-18T14:59:45.312Z,-3.84
2022-12-18T15:02:29.301Z,-3.76
2022-12-18T15:05:29.013Z,-3.85
2022-12-18T15:07:59.904Z,-3.99
2022-12-18T15:10:28.562Z,-3.99
2022-12-18T15:13:00.646Z,-3.94
2022-12-18T15:15:37.183Z,-3.96
2022-12-18T15:18:11.480Z,-4.03
2022-12-18T15:20:52.747Z,-4.09
2022-12-18T15:23:27.577Z,-4.16
2022-12-18T15:26:11.435Z,-4.20
2022-12-18T15:28:44.320Z,-4.25
2022-12-18T15:31:30.132Z,-4.09
2022-12-18T15:33:56.948Z,-4.08
2022-12-18T15:36:26.329Z,-4.25
2022-12-18T15:39:04.569Z,-4.31
2022-12-18T15:41:36.515Z,-4.41
2022-12-18T15:44:18.281Z,-4.27
2022-12-18T15:46:45.422Z,-4.35
2022-12-18T15:49:12.316Z,-4.46
2022-12-18T15:51:40.821Z,-4.43
2022-12-18T15:54:16.654Z,-4.35
2022-12-18T15:57:02.404Z,-4.26
2022-12-18T15:59:29.526Z,-4.35
2022-12-18T16:01:59.012Z,-4.36
2022-12-18T16:04:27.292Z,-4.37
2022-12-18T16:09:42.969Z,-4.29
2022-12-18T16:12:22.257Z,-4.36
2022-12-18T16:14:49.408Z,-4.31
2022-12-18T16:17:16.887Z,-4.33
2022-12-18T16:19:43.862Z,-4.32
2022-12-18T16:22:23.573Z,-4.31
2022-12-18T16:24:52.682Z,-4.23
2022-12-18T16:27:21.603Z,-4.26
2022-12-18T16:29:48.600Z,-4.28
2022-12-18T16:32:20.258Z,-4.39
2022-12-18T16:34:47.896Z,-4.33
2022-12-18T16:37:17.009Z,-4.30
2022-12-18T16:39:44.172Z,-4.28
2022-12-18T16:42:17.879Z,-4.20
2022-12-18T16:44:45.439Z,-4.20
2022-12-18T16:47:14.408Z,-4.25
2022-12-18T16:49:45.241Z,-4.17
2022-12-18T16:52:13.130Z,-4.16
2022-12-18T16:54:41.573Z,-4.25
2022-12-18T16:57:14.514Z,-4.18
2022-12-18T16:59:41.439Z,-4.16
2022-12-18T17:02:35.910Z,-4.16
2022-12-18T17:05:02.978Z,-4.11
2022-12-18T17:07:30.457Z,-3.98
2022-12-18T17:09:57.416Z,-3.94
2022-12-18T17:12:25.015Z,-3.88
2022-12-18T17:14:52.188Z,-4.00
2022-12-18T17:17:22.716Z,-4.16
2022-12-18T17:19:51.229Z,-4.05
2022-12-18T17:22:19.208Z,-3.99
2022-12-18T17:24:49.710Z,-4.13
2022-12-18T17:27:16.900Z,-3.99
2022-12-18T17:29:47.802Z,-3.90
2022-12-18T17:32:17.096Z,-3.95
2022-12-18T17:34:44.202Z,-4.02
2022-12-18T17:37:11.637Z,-4.01
2022-12-18T17:39:39.392Z,-4.03
2022-12-18T17:42:06.937Z,-4.14
2022-12-18T17:44:35.305Z,-4.02
2022-12-18T17:47:03.156Z,-4.09
2022-12-18T17:49:31.030Z,-3.94
2022-12-18T17:51:58.216Z,-3.87
2022-12-18T17:54:25.081Z,-3.98
2022-12-18T17:56:52.212Z,-4.00
2022-12-18T17:59:19.140Z,-3.89
2022-12-18T18:01:46.538Z,-3.82
2022-12-18T18:04:14.378Z,-3.81
2022-12-18T18:06:42.190Z,-3.78
2022-12-18T18:09:16.641Z,-3.86
2022-12-18T18:12:04.377Z,-3.79
2022-12-18T18:14:33.117Z,-3.88
2022-12-18T18:17:04.826Z,-3.80
2022-12-18T18:19:33.687Z,-3.83
2022-12-18T18:22:02.086Z,-3.88
2022-12-18T18:24:48.616Z,-4.00
2022-12-18T18:27:16.374Z,-4.00
2022-12-18T18:29:43.722Z,-3.95
2022-12-18T18:32:11.161Z,-4.05
2022-12-18T18:34:41.410Z,-4.10
2022-12-18T18:37:10.256Z,-4.16
2022-12-18T18:39:37.041Z,-4.17
2022-12-18T18:42:04.518Z,-4.10
2022-12-18T18:44:31.662Z,-4.09
2022-12-18T18:46:59.419Z,-4.15
2022-12-18T18:49:28.361Z,-4.22
2022-12-18T18:51:57.925Z,-4.24
2022-12-18T18:54:26.327Z,-4.13
2022-12-18T18:59:41.106Z,-4.22
2022-12-18T19:02:17.665Z,-4.19
2022-12-18T19:04:46.260Z,-4.16
2022-12-18T19:07:18.489Z,-4.21
2022-12-18T19:10:04.170Z,-4.22
2022-12-18T19:12:51.994Z,-4.18
2022-12-18T19:15:19.381Z,-4.16
2022-12-18T19:17:47.562Z,-4.22
2022-12-18T19:20:15.453Z,-4.29
2022-12-18T19:22:42.551Z,-4.34
2022-12-18T19:25:10.515Z,-4.39
2022-12-18T19:27:40.177Z,-4.47
2022-12-18T19:30:08.064Z,-4.45
2022-12-18T19:32:35.391Z,-4.59
2022-12-18T19:35:02.715Z,-4.70
2022-12-18T19:37:30.105Z,-4.62
2022-12-18T19:39:57.130Z,-4.78
2022-12-18T19:42:28.141Z,-4.89
2022-12-18T19:44:56.428Z,-4.94
2022-12-18T19:47:23.526Z,-4.99
2022-12-18T19:49:50.445Z,-4.99
2022-12-18T19:52:17.666Z,-5.08
2022-12-18T19:54:44.497Z,-4.98
2022-12-18T19:57:12.489Z,-4.88
2022-12-18T19:59:39.540Z,-4.89
2022-12-18T20:02:13.761Z,-5.10
2022-12-18T20:04:41.047Z,-4.98
2022-12-18T20:07:08.258Z,-4.94
2022-12-18T20:09:36.871Z,-4.97
2022-12-18T20:12:05.228Z,-5.11
2022-12-18T20:14:32.131Z,-5.21
2022-12-18T20:19:46.052Z,-5.29
2022-12-18T20:20:47.377Z,-5.33
2022-12-18T20:22:13.612Z,-5.17
2022-12-18T20:24:41.266Z,-5.16
2022-12-18T20:27:14.121Z,-5.15
2022-12-18T20:29:43.679Z,-5.14
2022-12-18T20:32:10.963Z,-5.09
2022-12-18T20:34:37.993Z,-5.18
2022-12-18T20:37:05.709Z,-5.07
2022-12-18T20:39:32.994Z,-5.05
2022-12-18T20:42:00.805Z,-4.96
2022-12-18T20:44:27.872Z,-4.90
2022-12-18T20:47:00.305Z,-4.99
2022-12-18T20:49:32.163Z,-5.12
2022-12-18T20:51:59.460Z,-5.11
2022-12-18T20:54:27.748Z,-5.15
2022-12-18T20:56:56.014Z,-5.21
2022-12-18T20:59:25.226Z,-5.16
2022-12-18T21:01:54.471Z,-5.20
2022-12-18T21:04:22.466Z,-5.09
2022-12-18T21:07:01.922Z,-5.03
2022-12-18T21:09:36.209Z,-5.02
2022-12-18T21:12:33.470Z,-5.32
2022-12-18T21:15:10.296Z,-5.43
2022-12-18T21:17:43.423Z,-5.58
2022-12-18T21:20:15.721Z,-5.68
2022-12-18T21:22:45.134Z,-5.66
2022-12-18T21:25:12.111Z,-5.57
2022-12-18T21:27:39.326Z,-5.53
2022-12-18T21:30:07.238Z,-5.55
2022-12-18T21:32:34.336Z,-5.49
2022-12-18T21:35:01.204Z,-5.44
2022-12-18T21:37:28.243Z,-5.31
2022-12-18T21:39:55.155Z,-5.47
2022-12-18T21:42:40.751Z,-5.61
2022-12-18T21:45:08.234Z,-5.55
2022-12-18T21:47:35.386Z,-5.42
2022-12-18T21:50:02.238Z,-5.53
2022-12-18T21:52:32.390Z,-5.64
2022-12-18T21:55:09.132Z,-5.47
2022-12-18T21:57:39.402Z,-5.43
2022-12-18T22:00:12.523Z,-5.40
2022-12-18T22:02:46.255Z,-5.62
2022-12-18T22:05:13.270Z,-5.51
2022-12-18T22:07:40.517Z,-5.54
2022-12-18T22:10:08.118Z,-5.49
2022-12-18T22:12:37.741Z,-5.45
2022-12-18T22:15:14.731Z,-5.43
2022-12-18T22:17:51.207Z,-5.31
2022-12-18T22:20:22.407Z,-5.40
2022-12-18T22:22:51.771Z,-5.33
2022-12-18T22:25:18.973Z,-5.32
2022-12-18T22:28:06.284Z,-5.37
2022-12-18T22:30:33.225Z,-5.36
2022-12-18T22:33:00.908Z,-5.25
2022-12-18T22:35:27.950Z,-5.12
2022-12-18T22:37:55.633Z,-5.04
2022-12-18T22:40:25.666Z,-5.03
2022-12-18T22:42:54.775Z,-5.08
2022-12-18T22:45:22.157Z,-5.08
2022-12-18T22:47:49.553Z,-5.08
2022-12-18T22:50:16.486Z,-5.05
2022-12-18T22:52:43.679Z,-4.99
2022-12-18T22:55:10.768Z,-5.01
2022-12-18T22:57:38.202Z,-5.03
2022-12-18T23:00:08.646Z,-4.98
2022-12-18T23:02:35.951Z,-4.92
2022-12-18T23:05:02.981Z,-4.94
2022-12-18T23:07:30.132Z,-4.92
2022-12-18T23:10:00.588Z,-4.92
2022-12-18T23:12:28.603Z,-4.96
2022-12-18T23:14:55.632Z,-4.91
2022-12-18T23:17:23.041Z,-4.88
2022-12-18T23:19:49.863Z,-4.80
2022-12-18T23:22:17.827Z,-4.77
2022-12-18T23:24:44.751Z,-4.71
2022-12-18T23:27:12.311Z,-4.76
2022-12-18T23:29:40.699Z,-4.77
2022-12-18T23:32:08.394Z,-4.68
2022-12-18T23:34:35.366Z,-4.63
2022-12-18T23:37:03.864Z,-4.66
2022-12-18T23:39:30.946Z,-4.66
2022-12-18T23:42:01.554Z,-4.60
2022-12-18T23:44:28.934Z,-4.56
2022-12-18T23:46:56.136Z,-4.50
2022-12-18T23:49:23.438Z,-4.49
2022-12-18T23:51:50.831Z,-4.51
2022-12-18T23:54:19.524Z,-4.49
2022-12-18T23:57:00.070Z,-4.41
2022-12-18T23:59:26.918Z,-4.43
